Aviation Digital Data Service (ADDS)

Output produced by METARs form (0124 UTC 26 August 2016)
found at http://aviationweather.gov/adds/metars/
 
KPOU 252320Z 2600/2624 18006KT P6SM SCT020 BKN040 
     FM260400 VRB03KT 4SM BR VCSH SCT020 BKN040 
     FM261400 28004KT 4SM BR VCSH FEW008 OVC040 
     FM261700 31007KT P6SM SCT050